createdAt,value
2018-08-30T00:01:13.534Z,92.20
2018-08-30T00:03:43.995Z,92.20
2018-08-30T00:06:14.348Z,92.60
2018-08-30T00:08:44.801Z,92.20
2018-08-30T00:11:16.228Z,92.20
2018-08-30T00:13:46.559Z,92.50
2018-08-30T00:16:17.431Z,92.10
2018-08-30T00:18:47.902Z,92.20
2018-08-30T00:21:19.200Z,92.10
2018-08-30T00:23:50.045Z,92.30
2018-08-30T00:26:20.374Z,92.30
2018-08-30T00:28:51.770Z,92.30
2018-08-30T00:31:22.096Z,92.40
2018-08-30T00:33:52.763Z,92.30
2018-08-30T00:36:23.116Z,92.20
2018-08-30T00:38:53.444Z,92.50
2018-08-30T00:41:23.899Z,92.20
2018-08-30T00:43:54.178Z,92.30
2018-08-30T00:46:24.608Z,92.50
2018-08-30T00:48:54.976Z,92.50
2018-08-30T00:51:25.328Z,92.70
2018-08-30T00:53:55.758Z,92.70
2018-08-30T00:56:26.136Z,92.70
2018-08-30T00:58:56.529Z,92.70
2018-08-30T01:01:26.886Z,92.70
2018-08-30T01:03:57.261Z,92.70
2018-08-30T01:06:27.622Z,92.70
2018-08-30T01:08:58.602Z,92.70
2018-08-30T01:11:29.316Z,92.60
2018-08-30T01:13:59.617Z,92.60
2018-08-30T01:16:31.028Z,92.80
2018-08-30T01:19:02.230Z,92.90
2018-08-30T01:21:32.512Z,93.00
2018-08-30T01:24:03.963Z,92.90
2018-08-30T01:26:34.374Z,92.90
2018-08-30T01:29:04.820Z,92.90
2018-08-30T01:31:35.201Z,92.70
2018-08-30T01:34:06.600Z,93.00
2018-08-30T01:36:37.261Z,93.20
2018-08-30T01:39:08.238Z,93.20
2018-08-30T01:41:38.687Z,93.30
2018-08-30T01:44:10.289Z,93.30
2018-08-30T01:46:40.704Z,93.40
2018-08-30T01:49:11.341Z,93.50
2018-08-30T01:51:41.865Z,93.40
2018-08-30T01:54:12.265Z,93.40
2018-08-30T01:56:42.668Z,93.40
2018-08-30T01:59:13.542Z,93.30
2018-08-30T02:01:43.841Z,93.20
2018-08-30T02:04:14.687Z,93.30
2018-08-30T02:06:45.100Z,93.30
2018-08-30T02:09:15.413Z,93.70
2018-08-30T02:11:46.335Z,93.40
2018-08-30T02:14:17.103Z,93.40
2018-08-30T02:16:47.665Z,93.30
2018-08-30T02:19:18.037Z,93.30
2018-08-30T02:21:48.469Z,93.60
2018-08-30T02:24:18.919Z,93.50
2018-08-30T02:26:49.345Z,93.80
2018-08-30T02:29:19.875Z,93.50
2018-08-30T02:31:50.484Z,93.50
2018-08-30T02:34:20.821Z,93.60
2018-08-30T02:36:52.063Z,93.60
2018-08-30T02:39:22.824Z,93.70
2018-08-30T02:41:53.397Z,93.70
2018-08-30T02:44:26.106Z,93.70
2018-08-30T02:46:57.593Z,93.60
2018-08-30T02:49:28.654Z,93.60
2018-08-30T02:51:58.978Z,93.70
2018-08-30T02:54:29.781Z,93.80
2018-08-30T02:57:00.174Z,93.90
2018-08-30T02:59:30.981Z,94.00
2018-08-30T03:02:01.326Z,94.00
2018-08-30T03:04:32.476Z,93.90
2018-08-30T03:07:02.781Z,94.00
2018-08-30T03:09:33.189Z,94.00
2018-08-30T03:12:03.541Z,94.00
2018-08-30T03:14:33.930Z,94.00
2018-08-30T03:17:04.296Z,94.10
2018-08-30T03:19:34.668Z,94.10
2018-08-30T03:22:05.001Z,94.10
2018-08-30T03:24:35.288Z,94.10
2018-08-30T03:27:05.600Z,94.10
2018-08-30T03:29:35.921Z,94.10
2018-08-30T03:32:06.413Z,94.00
2018-08-30T03:34:36.760Z,94.20
2018-08-30T03:37:07.151Z,94.10
2018-08-30T03:39:37.430Z,94.10
2018-08-30T03:42:07.813Z,94.10
2018-08-30T03:44:38.167Z,94.20
2018-08-30T03:47:08.883Z,94.20
2018-08-30T03:49:39.905Z,94.60
2018-08-30T03:52:10.894Z,94.30
2018-08-30T03:54:42.161Z,94.20
2018-08-30T03:57:12.742Z,94.40
2018-08-30T03:59:43.324Z,94.40
2018-08-30T04:02:13.698Z,94.40
2018-08-30T04:04:44.093Z,94.30
2018-08-30T04:07:15.257Z,94.30
2018-08-30T04:09:45.636Z,94.20
2018-08-30T04:12:17.781Z,94.10
2018-08-30T04:14:48.590Z,94.10
2018-08-30T04:17:19.300Z,94.00
2018-08-30T04:19:49.727Z,94.00
2018-08-30T04:22:20.141Z,94.10
2018-08-30T04:24:50.484Z,94.10
2018-08-30T04:27:20.845Z,94.20
2018-08-30T04:29:51.241Z,94.20
2018-08-30T04:32:21.585Z,94.30
2018-08-30T04:34:52.172Z,94.40
2018-08-30T04:37:22.553Z,94.40
2018-08-30T04:39:52.897Z,94.30
2018-08-30T04:42:23.927Z,94.20
2018-08-30T04:44:54.218Z,94.30
2018-08-30T04:47:24.925Z,94.30
2018-08-30T04:49:55.641Z,94.20
2018-08-30T04:52:26.476Z,94.20
2018-08-30T04:54:56.817Z,94.30
2018-08-30T04:57:27.259Z,94.20
2018-08-30T04:59:58.152Z,94.20
2018-08-30T05:02:28.540Z,94.20
2018-08-30T05:04:59.105Z,94.20
2018-08-30T05:07:29.595Z,94.20
2018-08-30T05:10:01.303Z,94.40
2018-08-30T05:12:31.841Z,94.40
2018-08-30T05:15:02.211Z,94.40
2018-08-30T05:17:33.376Z,94.30
2018-08-30T05:20:04.866Z,94.30
2018-08-30T05:22:36.918Z,94.40
2018-08-30T05:25:08.122Z,94.30
2018-08-30T05:27:41.961Z,94.60
2018-08-30T05:30:15.617Z,94.60
2018-08-30T05:32:47.971Z,94.20
2018-08-30T05:35:19.283Z,93.90
2018-08-30T05:37:52.233Z,93.70
2018-08-30T05:40:30.593Z,93.60
2018-08-30T05:43:00.924Z,93.60
2018-08-30T05:45:32.276Z,93.30
2018-08-30T05:48:02.668Z,93.00
2018-08-30T05:50:33.629Z,93.10
2018-08-30T05:53:04.037Z,93.00
2018-08-30T05:55:36.757Z,92.90
2018-08-30T05:58:08.013Z,92.80
2018-08-30T06:00:38.469Z,92.90
2018-08-30T06:03:09.965Z,92.80
2018-08-30T06:05:41.309Z,93.00
2018-08-30T06:08:12.460Z,92.70
2018-08-30T06:10:53.828Z,92.60
2018-08-30T06:13:26.397Z,92.30
2018-08-30T06:16:14.669Z,92.20
2018-08-30T06:18:45.059Z,92.40
2018-08-30T06:21:17.114Z,92.30
2018-08-30T06:23:48.378Z,92.40
2018-08-30T06:26:22.654Z,92.20
2018-08-30T06:28:55.008Z,92.20
2018-08-30T06:31:27.281Z,92.00
2018-08-30T06:33:58.864Z,92.00
2018-08-30T06:36:29.874Z,91.90
2018-08-30T06:39:01.313Z,91.80
2018-08-30T06:41:31.825Z,92.00
2018-08-30T06:44:02.926Z,91.40
2018-08-30T06:46:34.458Z,91.20
2018-08-30T06:49:04.964Z,91.20
2018-08-30T06:51:35.685Z,91.30
2018-08-30T06:54:06.176Z,91.40
2018-08-30T06:56:36.527Z,91.20
2018-08-30T06:59:07.657Z,90.70
2018-08-30T07:01:40.119Z,90.60
2018-08-30T07:09:13.283Z,90.90
2018-08-30T07:11:46.921Z,90.70
2018-08-30T07:14:17.537Z,90.20
2018-08-30T07:16:48.695Z,89.40
2018-08-30T07:19:19.044Z,89.20
2018-08-30T07:21:50.072Z,89.40
2018-08-30T07:24:24.808Z,88.90
2018-08-30T07:26:55.129Z,88.90
2018-08-30T07:29:26.581Z,88.80
2018-08-30T07:32:18.137Z,89.50
2018-08-30T07:34:49.297Z,88.30
2018-08-30T07:37:23.834Z,87.90
2018-08-30T07:39:56.048Z,87.50
2018-08-30T07:42:29.434Z,86.90
2018-08-30T07:45:00.437Z,87.50
2018-08-30T07:47:31.396Z,86.10
2018-08-30T07:50:19.551Z,86.60
2018-08-30T07:52:50.787Z,86.90
2018-08-30T07:55:21.311Z,85.60
2018-08-30T07:57:53.040Z,85.10
2018-08-30T08:00:26.054Z,85.20
2018-08-30T08:03:04.111Z,84.50
2018-08-30T08:05:37.746Z,83.60
2018-08-30T08:08:08.368Z,84.10
2018-08-30T08:10:39.961Z,84.70
2018-08-30T08:13:12.705Z,84.20
2018-08-30T08:15:44.072Z,85.10
2018-08-30T08:18:16.304Z,84.40
2018-08-30T08:20:48.413Z,84.20
2018-08-30T08:23:20.858Z,84.20
2018-08-30T08:25:52.828Z,82.70
2018-08-30T08:28:24.244Z,81.30
2018-08-30T08:30:54.610Z,81.20
2018-08-30T08:33:25.393Z,81.10
2018-08-30T08:35:57.210Z,80.40
2018-08-30T08:38:27.559Z,80.20
2018-08-30T08:40:57.993Z,79.80
2018-08-30T08:43:28.744Z,79.50
2018-08-30T08:45:59.116Z,79.30
2018-08-30T08:48:31.228Z,78.30
2018-08-30T08:51:02.962Z,74.70
2018-08-30T08:53:33.314Z,72.90
2018-08-30T08:56:03.934Z,73.90
2018-08-30T08:58:35.603Z,73.60
2018-08-30T09:01:05.989Z,74.60
2018-08-30T09:03:37.713Z,74.90
2018-08-30T09:06:09.044Z,75.20
2018-08-30T09:08:39.558Z,75.10
2018-08-30T09:11:10.998Z,73.30
2018-08-30T09:13:41.988Z,73.70
2018-08-30T09:16:12.990Z,71.90
2018-08-30T09:18:43.717Z,71.20
2018-08-30T09:21:14.910Z,65.10
2018-08-30T09:23:46.461Z,64.60
2018-08-30T09:26:17.616Z,65.10
2018-08-30T09:28:48.025Z,66.40
2018-08-30T09:31:18.421Z,62.50
2018-08-30T09:33:51.210Z,64.20
2018-08-30T09:36:21.993Z,64.70
2018-08-30T09:38:52.620Z,61.80
2018-08-30T09:41:22.984Z,63.10
2018-08-30T09:43:53.420Z,60.10
2018-08-30T09:46:24.141Z,60.50
2018-08-30T09:48:57.113Z,59.70
2018-08-30T09:51:28.268Z,59.40
2018-08-30T09:54:00.026Z,57.30
2018-08-30T09:56:32.258Z,57.60
2018-08-30T09:59:03.468Z,56.10
2018-08-30T10:01:40.085Z,55.40
2018-08-30T10:04:12.611Z,54.70
2018-08-30T10:06:45.804Z,55.50
2018-08-30T10:09:18.456Z,54.80
2018-08-30T10:11:50.282Z,54.20
2018-08-30T10:14:24.253Z,52.40
2018-08-30T10:16:56.263Z,52.50
2018-08-30T10:19:27.413Z,52.20
2018-08-30T10:21:57.799Z,49.70
2018-08-30T10:24:28.546Z,49.20
2018-08-30T10:27:00.906Z,49.10
2018-08-30T10:29:36.308Z,48.40
2018-08-30T10:32:07.561Z,48.60
2018-08-30T10:34:38.899Z,50.00
2018-08-30T10:37:09.223Z,47.90
2018-08-30T10:39:39.680Z,47.80
2018-08-30T10:42:12.137Z,48.40
2018-08-30T10:44:42.572Z,47.40
2018-08-30T10:47:13.924Z,45.60
2018-08-30T10:49:45.917Z,46.70
2018-08-30T10:52:21.616Z,48.20
2018-08-30T10:54:53.456Z,49.00
2018-08-30T10:57:24.649Z,48.30
2018-08-30T10:59:55.656Z,48.20
2018-08-30T11:02:26.151Z,46.70
2018-08-30T11:05:03.046Z,46.10
2018-08-30T11:07:33.530Z,45.10
2018-08-30T11:10:05.576Z,44.20
2018-08-30T11:12:36.515Z,43.40
2018-08-30T11:15:07.591Z,44.00
2018-08-30T11:17:38.034Z,45.60
2018-08-30T11:20:19.701Z,45.40
2018-08-30T11:22:51.001Z,44.70
2018-08-30T11:25:21.374Z,44.40
2018-08-30T11:27:52.863Z,44.40
2018-08-30T11:30:24.308Z,43.60
2018-08-30T11:32:59.525Z,44.00
2018-08-30T11:35:30.646Z,44.40
2018-08-30T11:38:01.442Z,44.70
2018-08-30T11:40:31.980Z,45.20
2018-08-30T11:43:03.226Z,46.10
2018-08-30T11:45:33.765Z,48.20
2018-08-30T11:48:04.156Z,48.80
2018-08-30T11:50:36.225Z,49.00
2018-08-30T11:53:06.999Z,49.50
2018-08-30T11:55:37.322Z,49.20
2018-08-30T11:58:07.784Z,49.60
2018-08-30T12:00:38.353Z,50.20
2018-08-30T12:03:08.801Z,49.90
2018-08-30T12:05:40.549Z,49.80
2018-08-30T12:08:10.983Z,49.70
2018-08-30T12:10:41.476Z,49.90
2018-08-30T12:13:11.793Z,49.60
2018-08-30T12:15:42.046Z,48.90
2018-08-30T12:18:12.386Z,48.70
2018-08-30T12:20:43.570Z,48.80
2018-08-30T12:23:13.816Z,49.50
2018-08-30T12:25:44.336Z,48.90
2018-08-30T12:28:14.685Z,49.20
2018-08-30T12:30:45.100Z,48.60
2018-08-30T12:33:18.519Z,49.00
2018-08-30T12:35:55.932Z,49.20
2018-08-30T12:38:26.119Z,45.90
2018-08-30T12:40:56.594Z,44.00
2018-08-30T12:43:28.124Z,41.50
2018-08-30T12:45:58.287Z,42.20
2018-08-30T12:48:29.203Z,40.40
2018-08-30T12:51:00.293Z,40.30
2018-08-30T12:53:30.611Z,39.80
2018-08-30T12:56:02.630Z,39.70
2018-08-30T12:58:35.235Z,37.50
2018-08-30T13:01:07.348Z,37.60
2018-08-30T13:03:37.809Z,37.10
2018-08-30T13:06:08.346Z,37.20
2018-08-30T13:08:38.654Z,37.30
2018-08-30T13:11:09.779Z,37.20
2018-08-30T13:13:41.488Z,37.30
2018-08-30T13:16:13.176Z,38.40
2018-08-30T13:18:43.537Z,40.30
2018-08-30T13:21:13.795Z,39.60
2018-08-30T13:23:45.835Z,40.30
2018-08-30T13:26:16.276Z,41.60
2018-08-30T13:28:46.958Z,42.40
2018-08-30T13:31:18.904Z,41.70
2018-08-30T13:33:50.789Z,42.80
2018-08-30T13:36:21.514Z,43.40
2018-08-30T13:38:51.795Z,44.10
2018-08-30T13:41:22.741Z,42.60
2018-08-30T13:43:53.756Z,42.70
2018-08-30T13:46:24.991Z,43.00
2018-08-30T13:48:57.974Z,44.10
2018-08-30T13:51:31.529Z,44.30
2018-08-30T13:54:03.178Z,45.90
2018-08-30T13:56:37.449Z,45.40
2018-08-30T13:59:10.581Z,44.60
2018-08-30T14:01:49.711Z,43.70
2018-08-30T14:04:26.946Z,43.80
2018-08-30T14:06:58.949Z,44.40
2018-08-30T14:09:31.150Z,44.10
2018-08-30T14:12:02.363Z,42.90
2018-08-30T14:14:39.072Z,43.80
2018-08-30T14:17:09.978Z,43.40
2018-08-30T14:19:41.068Z,43.30
2018-08-30T14:22:16.161Z,43.90
2018-08-30T14:24:47.702Z,44.30
2018-08-30T14:27:18.033Z,44.50
2018-08-30T14:29:51.225Z,43.90
2018-08-30T14:32:21.617Z,44.30
2018-08-30T14:34:51.919Z,43.80
2018-08-30T14:37:22.953Z,44.30
2018-08-30T14:39:53.298Z,44.40
2018-08-30T14:42:23.625Z,45.50
2018-08-30T14:44:54.010Z,44.60
2018-08-30T14:47:25.414Z,44.00
2018-08-30T14:50:04.453Z,44.80
2018-08-30T14:52:35.487Z,45.10
2018-08-30T14:55:07.032Z,44.50
2018-08-30T14:57:39.128Z,44.60
2018-08-30T15:00:12.264Z,42.70
2018-08-30T15:02:42.597Z,41.80
2018-08-30T15:05:13.431Z,41.80
2018-08-30T15:07:43.657Z,42.90
2018-08-30T15:10:14.133Z,42.30
2018-08-30T15:12:44.542Z,43.70
2018-08-30T15:15:15.423Z,44.10
2018-08-30T15:17:45.849Z,45.10
2018-08-30T15:20:23.402Z,45.90
2018-08-30T15:22:54.503Z,46.80
2018-08-30T15:25:26.322Z,47.10
2018-08-30T15:27:59.612Z,47.80
2018-08-30T15:30:38.179Z,48.60
2018-08-30T15:33:09.489Z,49.00
2018-08-30T15:35:41.566Z,49.50
2018-08-30T15:38:22.842Z,49.60
2018-08-30T15:40:55.481Z,50.70
2018-08-30T15:43:25.794Z,50.50
2018-08-30T15:46:00.437Z,52.20
2018-08-30T15:48:32.467Z,50.90
2018-08-30T15:51:03.109Z,48.80
2018-08-30T15:53:36.657Z,47.60
2018-08-30T15:58:49.244Z,44.80
2018-08-30T16:01:21.475Z,44.10
2018-08-30T16:03:56.284Z,44.40
2018-08-30T16:06:36.168Z,44.80
2018-08-30T16:09:12.417Z,43.30
2018-08-30T16:11:42.886Z,44.60
2018-08-30T16:14:14.842Z,46.90
2018-08-30T16:16:45.433Z,47.40
2018-08-30T16:19:28.093Z,48.30
2018-08-30T16:22:02.849Z,48.90
2018-08-30T16:24:44.238Z,49.80
2018-08-30T16:27:15.246Z,50.20
2018-08-30T16:29:46.971Z,50.30
2018-08-30T16:32:17.999Z,50.60
2018-08-30T16:34:48.701Z,52.20
2018-08-30T16:37:19.096Z,53.50
2018-08-30T16:39:50.822Z,54.60
2018-08-30T16:42:24.002Z,55.60
2018-08-30T16:44:54.797Z,56.40
2018-08-30T16:47:30.528Z,57.40
2018-08-30T16:50:01.089Z,58.20
2018-08-30T16:52:37.621Z,59.10
2018-08-30T16:55:17.813Z,59.80
2018-08-30T16:57:52.837Z,61.90
2018-08-30T17:00:28.054Z,62.80
2018-08-30T17:03:06.307Z,62.70
2018-08-30T17:05:40.398Z,63.30
2018-08-30T17:11:03.132Z,65.80
2018-08-30T17:13:36.966Z,66.20
2018-08-30T17:16:21.411Z,66.60
2018-08-30T17:19:13.165Z,67.30
2018-08-30T17:21:44.393Z,68.40
2018-08-30T17:24:40.412Z,68.40
2018-08-30T17:27:11.862Z,68.80
2018-08-30T17:29:42.257Z,69.50
2018-08-30T17:32:14.128Z,70.80
2018-08-30T17:34:45.797Z,70.90
2018-08-30T17:37:16.564Z,71.60
2018-08-30T17:39:46.896Z,72.00
2018-08-30T17:42:18.569Z,72.70
2018-08-30T17:44:49.911Z,73.50
2018-08-30T17:47:20.555Z,73.50
2018-08-30T17:49:53.084Z,74.00
2018-08-30T17:52:49.356Z,73.80
2018-08-30T17:55:20.267Z,74.90
2018-08-30T17:57:52.170Z,75.10
2018-08-30T18:00:23.377Z,75.70
2018-08-30T18:02:55.071Z,76.50
2018-08-30T18:05:27.709Z,77.10
2018-08-30T18:07:58.509Z,77.10
2018-08-30T18:10:29.160Z,77.50
2018-08-30T18:12:59.492Z,78.00
2018-08-30T18:15:29.974Z,78.50
2018-08-30T18:18:00.384Z,78.80
2018-08-30T18:20:30.708Z,79.60
2018-08-30T18:23:01.077Z,80.10
2018-08-30T18:25:31.884Z,80.20
2018-08-30T18:28:02.500Z,80.60
2018-08-30T18:30:35.261Z,81.10
2018-08-30T18:33:07.217Z,81.40
2018-08-30T18:35:41.173Z,81.50
2018-08-30T18:38:12.534Z,81.70
2018-08-30T18:40:43.536Z,82.10
2018-08-30T18:43:13.857Z,82.50
2018-08-30T18:45:44.981Z,82.80
2018-08-30T18:48:15.484Z,83.20
2018-08-30T18:50:45.907Z,83.40
2018-08-30T18:53:16.396Z,83.80
2018-08-30T18:55:46.865Z,83.80
2018-08-30T18:58:18.338Z,84.10
2018-08-30T19:00:49.370Z,84.10
2018-08-30T19:03:20.682Z,84.20
2018-08-30T19:05:52.321Z,84.50
2018-08-30T19:08:23.263Z,84.80
2018-08-30T19:10:53.851Z,84.80
2018-08-30T19:13:24.262Z,84.70
2018-08-30T19:16:00.726Z,84.60
2018-08-30T19:18:37.318Z,84.60
2018-08-30T19:21:08.362Z,84.90
2018-08-30T19:23:39.568Z,85.20
2018-08-30T19:26:11.667Z,85.40
2018-08-30T19:28:42.021Z,85.40
2018-08-30T19:31:15.265Z,85.60
2018-08-30T19:33:46.733Z,86.00
2018-08-30T19:36:24.866Z,86.20
2018-08-30T19:38:55.263Z,86.30
2018-08-30T19:41:25.801Z,86.70
2018-08-30T19:43:59.823Z,87.00
2018-08-30T19:46:30.476Z,87.30
2018-08-30T19:49:01.857Z,87.90
2018-08-30T19:51:33.084Z,88.00
2018-08-30T19:54:03.466Z,87.60
2018-08-30T19:56:34.535Z,87.50
2018-08-30T19:59:06.644Z,87.30
2018-08-30T20:01:36.956Z,87.40
2018-08-30T20:04:07.327Z,87.30
2018-08-30T20:06:38.462Z,87.20
2018-08-30T20:09:09.094Z,87.60
2018-08-30T20:11:39.877Z,87.70
2018-08-30T20:14:10.244Z,87.90
2018-08-30T20:16:40.669Z,87.80
2018-08-30T20:19:11.912Z,88.30
2018-08-30T20:21:43.082Z,87.90
2018-08-30T20:24:16.678Z,88.10
2018-08-30T20:26:48.958Z,88.30
2018-08-30T20:29:19.422Z,88.50
2018-08-30T20:31:49.980Z,88.50
2018-08-30T20:34:20.365Z,89.60
2018-08-30T20:36:53.373Z,88.60
2018-08-30T20:39:23.868Z,88.70
2018-08-30T20:41:55.312Z,88.70
2018-08-30T20:44:25.681Z,88.40
2018-08-30T20:46:56.018Z,88.50
2018-08-30T20:49:29.777Z,87.90
2018-08-30T20:52:00.857Z,88.70
2018-08-30T20:54:31.196Z,89.00
2018-08-30T20:57:01.577Z,88.80
2018-08-30T20:59:33.207Z,89.00
2018-08-30T21:02:03.715Z,89.20
2018-08-30T21:04:33.937Z,89.20
2018-08-30T21:07:04.334Z,89.70
2018-08-30T21:09:34.761Z,89.80
2018-08-30T21:12:06.024Z,90.00
2018-08-30T21:14:36.343Z,90.20
2018-08-30T21:17:07.200Z,90.60
2018-08-30T21:19:38.606Z,90.20
2018-08-30T21:22:09.208Z,90.30
2018-08-30T21:24:39.752Z,90.50
2018-08-30T21:27:10.110Z,90.50
2018-08-30T21:29:40.626Z,90.50
2018-08-30T21:32:11.317Z,90.60
2018-08-30T21:34:41.840Z,90.80
2018-08-30T21:37:12.229Z,90.90
2018-08-30T21:39:42.620Z,91.00
2018-08-30T21:42:13.277Z,90.90
2018-08-30T21:44:43.673Z,91.00
2018-08-30T21:47:15.293Z,91.40
2018-08-30T21:49:47.249Z,91.20
2018-08-30T21:52:19.232Z,91.50
2018-08-30T21:54:50.264Z,91.40
2018-08-30T21:57:28.230Z,91.60
2018-08-30T21:59:58.966Z,91.60
2018-08-30T22:02:31.256Z,91.70
2018-08-30T22:05:07.206Z,91.70
2018-08-30T22:07:42.637Z,91.50
2018-08-30T22:10:13.064Z,91.80
2018-08-30T22:12:45.949Z,91.90
2018-08-30T22:15:16.340Z,92.00
2018-08-30T22:17:46.767Z,92.20
2018-08-30T22:20:17.371Z,92.20
2018-08-30T22:22:48.528Z,92.30
2018-08-30T22:25:20.034Z,92.50
2018-08-30T22:27:50.383Z,92.60
2018-08-30T22:30:22.093Z,92.50
2018-08-30T22:32:53.273Z,92.60
2018-08-30T22:35:25.414Z,92.40
2018-08-30T22:37:56.269Z,92.50
2018-08-30T22:40:26.706Z,92.70
2018-08-30T22:42:57.084Z,92.80
2018-08-30T22:45:27.361Z,92.80
2018-08-30T22:47:57.749Z,92.80
2018-08-30T22:50:28.735Z,92.90
2018-08-30T22:52:59.037Z,93.00
2018-08-30T22:55:29.868Z,93.20
2018-08-30T22:58:00.353Z,93.10
2018-08-30T23:00:31.127Z,93.20
2018-08-30T23:03:01.426Z,93.20
2018-08-30T23:05:32.648Z,93.40
2018-08-30T23:08:02.973Z,93.50
2018-08-30T23:10:34.181Z,93.40
2018-08-30T23:13:04.527Z,93.40
2018-08-30T23:15:35.079Z,93.30
2018-08-30T23:18:05.552Z,93.50
2018-08-30T23:20:35.908Z,93.70
2018-08-30T23:23:06.264Z,93.70
2018-08-30T23:25:36.816Z,93.60
2018-08-30T23:28:07.812Z,93.70
2018-08-30T23:30:38.165Z,93.70
2018-08-30T23:33:08.416Z,93.80
2018-08-30T23:35:38.735Z,93.90
2018-08-30T23:38:09.032Z,93.80
2018-08-30T23:40:40.109Z,93.80
2018-08-30T23:43:10.561Z,93.80
2018-08-30T23:45:40.873Z,94.00
2018-08-30T23:48:11.208Z,94.00
2018-08-30T23:50:42.740Z,94.00
2018-08-30T23:53:13.448Z,94.30
2018-08-30T23:55:44.208Z,94.60
2018-08-30T23:58:31.332Z,94.60
